createdAt,value
2022-10-22T00:02:27.655Z,21.33
2022-10-22T00:04:56.806Z,22.13
2022-10-22T00:07:23.393Z,20.55
2022-10-22T00:09:49.967Z,19.77
2022-10-22T00:12:17.092Z,19.55
2022-10-22T00:14:43.911Z,20.88
2022-10-22T00:17:11.525Z,24.17
2022-10-22T00:19:39.229Z,19.88
2022-10-22T00:22:06.429Z,20.50
2022-10-22T00:24:33.581Z,21.23
2022-10-22T00:27:00.028Z,20.02
2022-10-22T00:29:26.408Z,22.52
2022-10-22T00:31:52.956Z,17.88
2022-10-22T00:34:21.319Z,19.63
2022-10-22T00:36:51.871Z,20.58
2022-10-22T00:39:20.096Z,19.35
2022-10-22T00:41:48.295Z,20.80
2022-10-22T00:44:52.228Z,22.77
2022-10-22T00:47:19.824Z,19.23
2022-10-22T00:49:47.000Z,21.85
2022-10-22T00:52:14.335Z,21.90
2022-10-22T00:54:42.491Z,21.95
2022-10-22T00:57:09.577Z,19.30
2022-10-22T00:59:37.431Z,20.27
2022-10-22T01:02:04.488Z,20.45
2022-10-22T01:04:30.876Z,21.73
2022-10-22T01:06:57.337Z,21.27
2022-10-22T01:09:38.817Z,20.58
2022-10-22T01:12:16.843Z,19.70
2022-10-22T01:15:14.261Z,19.10
2022-10-22T01:18:03.064Z,20.95
2022-10-22T01:20:58.222Z,21.10
2022-10-22T01:23:46.468Z,19.52
2022-10-22T01:26:21.787Z,18.30
2022-10-22T01:29:00.422Z,18.20
2022-10-22T01:31:32.424Z,18.13
2022-10-22T01:34:00.375Z,18.83
2022-10-22T01:36:30.530Z,18.88
2022-10-22T01:38:58.774Z,19.60
2022-10-22T01:41:28.272Z,18.88
2022-10-22T01:43:55.344Z,20.75
2022-10-22T01:46:26.821Z,22.05
2022-10-22T01:49:27.508Z,19.20
2022-10-22T01:52:12.028Z,20.60
2022-10-22T01:54:44.294Z,17.95
2022-10-22T01:57:31.437Z,16.65
2022-10-22T02:00:10.827Z,21.00
2022-10-22T02:05:27.291Z,19.23
2022-10-22T02:08:05.067Z,21.13
2022-10-22T02:10:32.425Z,20.63
2022-10-22T02:13:01.251Z,20.48
2022-10-22T02:15:31.120Z,22.73
2022-10-22T02:18:00.648Z,19.73
2022-10-22T02:20:33.020Z,18.10
2022-10-22T02:23:00.590Z,19.05
2022-10-22T02:25:35.129Z,21.02
2022-10-22T02:28:16.741Z,18.90
2022-10-22T02:30:46.743Z,17.63
2022-10-22T02:33:20.936Z,19.52
2022-10-22T02:35:48.666Z,19.42
2022-10-22T02:38:16.199Z,17.45
2022-10-22T02:40:42.712Z,17.38
2022-10-22T02:43:09.126Z,20.23
2022-10-22T02:45:35.893Z,19.67
2022-10-22T02:48:02.353Z,19.15
2022-10-22T02:50:28.818Z,20.70
2022-10-22T02:52:55.165Z,19.42
2022-10-22T02:55:21.642Z,18.90
2022-10-22T02:57:48.019Z,20.65
2022-10-22T03:00:14.895Z,17.05
2022-10-22T03:02:41.303Z,17.83
2022-10-22T03:05:08.246Z,22.83
2022-10-22T03:07:34.611Z,21.67
2022-10-22T03:10:01.009Z,22.65
2022-10-22T03:12:27.380Z,19.42
2022-10-22T03:14:53.717Z,23.50
2022-10-22T03:17:20.093Z,22.00
2022-10-22T03:19:46.464Z,22.30
2022-10-22T03:22:23.270Z,24.52
2022-10-22T03:24:54.633Z,25.27
2022-10-22T03:27:22.389Z,26.05
2022-10-22T03:29:51.721Z,25.30
2022-10-22T03:32:19.025Z,24.20
2022-10-22T03:34:45.412Z,22.50
2022-10-22T03:37:12.374Z,25.92
2022-10-22T03:39:38.847Z,24.33
2022-10-22T03:42:06.833Z,22.75
2022-10-22T03:44:33.639Z,27.50
2022-10-22T03:47:02.516Z,28.70
2022-10-22T03:49:29.370Z,25.48
2022-10-22T03:51:55.787Z,28.05
2022-10-22T03:54:22.152Z,29.33
2022-10-22T03:56:48.504Z,28.67
2022-10-22T03:59:15.058Z,26.52
2022-10-22T04:01:41.711Z,28.05
2022-10-22T04:04:08.579Z,25.25
2022-10-22T04:06:34.933Z,28.13
2022-10-22T04:09:02.278Z,25.13
2022-10-22T04:11:28.699Z,27.95
2022-10-22T04:13:55.053Z,26.98
2022-10-22T04:16:25.066Z,24.05
2022-10-22T04:18:53.885Z,25.98
2022-10-22T04:21:20.317Z,28.03
2022-10-22T04:23:48.337Z,30.05
2022-10-22T04:26:15.491Z,25.15
2022-10-22T04:28:42.535Z,27.45
2022-10-22T04:31:10.955Z,28.65
2022-10-22T04:33:37.587Z,28.50
2022-10-22T04:36:12.879Z,26.60
2022-10-22T04:38:39.904Z,26.35
2022-10-22T04:41:19.163Z,28.35
2022-10-22T04:43:46.601Z,31.67
2022-10-22T04:46:14.147Z,31.00
2022-10-22T04:48:42.118Z,33.13
2022-10-22T04:51:10.948Z,28.33
2022-10-22T04:53:37.994Z,29.25
2022-10-22T04:56:16.277Z,30.73
2022-10-22T04:58:43.881Z,29.60
2022-10-22T05:01:21.293Z,29.30
2022-10-22T05:03:49.410Z,25.65
2022-10-22T05:06:16.675Z,28.55
2022-10-22T05:08:43.610Z,28.80
2022-10-22T05:11:11.876Z,34.10
2022-10-22T05:13:38.677Z,30.77
2022-10-22T05:16:05.344Z,29.90
2022-10-22T05:18:34.540Z,33.75
2022-10-22T05:21:00.999Z,30.42
2022-10-22T05:23:28.123Z,35.83
2022-10-22T05:25:54.515Z,33.97
2022-10-22T05:28:21.335Z,33.17
2022-10-22T05:30:58.151Z,35.55
2022-10-22T05:33:24.896Z,36.33
2022-10-22T05:35:51.943Z,32.47
2022-10-22T05:38:19.375Z,36.70
2022-10-22T05:40:45.802Z,34.20
2022-10-22T05:43:12.812Z,34.35
2022-10-22T05:45:40.931Z,30.98
2022-10-22T05:48:08.115Z,32.03
2022-10-22T05:50:38.208Z,34.97
2022-10-22T05:53:05.672Z,31.85
2022-10-22T05:55:37.018Z,36.17
2022-10-22T05:58:05.033Z,32.53
2022-10-22T06:00:31.407Z,35.93
2022-10-22T06:02:57.748Z,36.67
2022-10-22T06:05:24.101Z,35.70
2022-10-22T06:07:50.501Z,32.22
2022-10-22T06:10:19.662Z,33.10
2022-10-22T06:12:47.107Z,34.37
2022-10-22T06:15:15.680Z,37.40
2022-10-22T06:17:43.960Z,34.17
2022-10-22T06:20:11.249Z,34.38
2022-10-22T06:22:37.688Z,31.13
2022-10-22T06:25:05.146Z,31.87
2022-10-22T06:27:31.993Z,34.13
2022-10-22T06:29:58.345Z,33.85
2022-10-22T06:32:24.681Z,30.15
2022-10-22T06:34:51.088Z,30.92
2022-10-22T06:37:17.507Z,32.47
2022-10-22T06:39:44.060Z,32.10
2022-10-22T06:42:10.389Z,29.13
2022-10-22T06:44:36.767Z,32.75
2022-10-22T06:47:03.178Z,30.20
2022-10-22T06:49:29.594Z,31.73
2022-10-22T06:51:55.944Z,31.58
2022-10-22T06:54:23.107Z,30.00
2022-10-22T06:56:49.779Z,32.33
2022-10-22T06:59:16.130Z,31.27
2022-10-22T07:01:42.971Z,29.47
2022-10-22T07:04:10.786Z,31.95
2022-10-22T07:06:37.257Z,27.98
2022-10-22T07:09:03.902Z,29.50
2022-10-22T07:11:39.265Z,25.90
2022-10-22T07:14:05.761Z,26.77
2022-10-22T07:16:32.652Z,32.78
2022-10-22T07:19:00.481Z,28.33
2022-10-22T07:21:26.863Z,26.25
2022-10-22T07:23:53.330Z,24.95
2022-10-22T07:26:20.407Z,23.30
2022-10-22T07:28:47.610Z,24.60
2022-10-22T07:31:15.305Z,25.30
2022-10-22T07:33:41.690Z,23.73
2022-10-22T07:36:12.074Z,21.35
2022-10-22T07:38:38.427Z,22.07
2022-10-22T07:41:04.951Z,21.45
2022-10-22T07:43:31.323Z,21.77
2022-10-22T07:45:57.739Z,20.33
2022-10-22T07:48:24.501Z,24.40
2022-10-22T07:50:51.664Z,19.63
2022-10-22T07:53:18.564Z,18.33
2022-10-22T07:55:48.819Z,19.40
2022-10-22T07:58:15.208Z,18.08
2022-10-22T08:00:41.658Z,18.10
2022-10-22T08:03:11.070Z,22.87
2022-10-22T08:05:39.236Z,17.65
2022-10-22T08:08:07.165Z,18.88
2022-10-22T08:10:34.794Z,20.92
2022-10-22T08:13:01.147Z,19.02
2022-10-22T08:15:27.543Z,19.60
2022-10-22T08:17:53.971Z,20.38
2022-10-22T08:20:20.409Z,15.63
2022-10-22T08:22:46.916Z,18.25
2022-10-22T08:25:13.652Z,17.92
2022-10-22T08:27:40.243Z,18.60
2022-10-22T08:30:07.732Z,16.13
2022-10-22T08:32:34.089Z,20.98
2022-10-22T08:35:00.428Z,15.43
2022-10-22T08:37:26.816Z,15.77
2022-10-22T08:39:53.504Z,14.90
2022-10-22T08:42:44.391Z,14.85
2022-10-22T08:45:40.447Z,15.57
2022-10-22T08:48:18.998Z,14.95
2022-10-22T08:50:52.208Z,13.45
2022-10-22T08:53:23.425Z,14.73
2022-10-22T08:55:53.914Z,14.88
2022-10-22T08:58:53.588Z,11.02
2022-10-22T09:01:26.558Z,12.43
2022-10-22T09:03:58.460Z,11.65
2022-10-22T09:06:29.809Z,9.33
2022-10-22T09:08:58.413Z,11.82
2022-10-22T09:11:36.875Z,9.85
2022-10-22T09:14:04.245Z,10.60
2022-10-22T09:16:42.949Z,9.88
2022-10-22T09:19:27.196Z,9.40
2022-10-22T09:22:00.239Z,11.65
2022-10-22T09:24:44.030Z,11.35
2022-10-22T09:27:23.682Z,11.45
2022-10-22T09:29:50.148Z,9.93
2022-10-22T09:32:17.857Z,11.67
2022-10-22T09:34:46.141Z,11.88
2022-10-22T09:37:12.507Z,10.38
2022-10-22T09:39:43.553Z,8.20
2022-10-22T09:42:11.605Z,11.63
2022-10-22T09:44:38.810Z,9.87
2022-10-22T09:47:42.606Z,13.25
2022-10-22T09:50:09.405Z,11.82
2022-10-22T09:52:35.790Z,12.75
2022-10-22T09:55:12.591Z,9.95
2022-10-22T09:57:40.960Z,11.57
2022-10-22T10:00:18.195Z,9.50
2022-10-22T10:02:44.587Z,9.45
2022-10-22T10:05:19.929Z,12.25
2022-10-22T10:07:48.992Z,8.18
2022-10-22T10:10:51.038Z,10.07
2022-10-22T10:13:32.501Z,12.57
2022-10-22T10:16:12.402Z,10.85
2022-10-22T10:19:05.619Z,9.80
2022-10-22T10:22:03.071Z,11.82
2022-10-22T10:24:57.388Z,9.27
2022-10-22T10:28:04.529Z,11.20
2022-10-22T10:30:32.286Z,11.88
2022-10-22T10:33:15.317Z,11.00
2022-10-22T10:35:55.051Z,9.73
2022-10-22T10:38:50.398Z,12.63
2022-10-22T10:41:31.772Z,10.82
2022-10-22T10:44:20.239Z,11.00
2022-10-22T10:47:12.937Z,12.23
2022-10-22T10:49:39.392Z,14.98
2022-10-22T10:52:21.488Z,13.07
2022-10-22T10:55:06.591Z,11.95
2022-10-22T10:57:44.296Z,13.63
2022-10-22T11:00:15.765Z,13.55
2022-10-22T11:03:16.112Z,15.23
2022-10-22T11:06:19.390Z,14.40
2022-10-22T11:08:59.199Z,11.57
2022-10-22T11:11:43.914Z,13.57
2022-10-22T11:14:32.373Z,11.35
2022-10-22T11:17:04.443Z,10.82
2022-10-22T11:19:50.948Z,11.40
2022-10-22T11:23:18.968Z,8.85
2022-10-22T11:25:48.839Z,13.23
2022-10-22T11:28:44.455Z,12.82
2022-10-22T11:31:16.072Z,13.68
2022-10-22T11:34:28.355Z,13.77
2022-10-22T11:36:52.847Z,12.25
2022-10-22T11:39:40.312Z,10.85
2022-10-22T11:42:10.767Z,10.68
2022-10-22T11:45:00.854Z,9.70
2022-10-22T11:47:31.876Z,14.80
2022-10-22T11:50:24.982Z,11.32
2022-10-22T11:53:21.526Z,12.70
2022-10-22T11:56:03.691Z,10.00
2022-10-22T11:58:30.534Z,10.35
2022-10-22T12:01:07.133Z,12.03
2022-10-22T12:03:33.432Z,11.75
2022-10-22T12:06:20.892Z,13.95
2022-10-22T12:08:50.864Z,11.88
2022-10-22T12:11:25.352Z,10.90
2022-10-22T12:14:16.191Z,11.43
2022-10-22T12:16:56.226Z,15.48
2022-10-22T12:19:23.162Z,14.13
2022-10-22T12:22:08.883Z,14.48
2022-10-22T12:24:40.469Z,11.82
2022-10-22T12:27:38.141Z,11.50
2022-10-22T12:30:22.700Z,11.35
2022-10-22T12:32:53.316Z,11.80
2022-10-22T12:35:22.917Z,13.20
2022-10-22T12:37:54.704Z,18.02
2022-10-22T12:40:25.989Z,10.47
2022-10-22T12:43:00.933Z,14.00
2022-10-22T12:45:32.671Z,16.27
2022-10-22T12:48:02.207Z,13.98
2022-10-22T12:50:38.149Z,13.90
2022-10-22T12:53:15.285Z,13.23
2022-10-22T12:55:42.024Z,15.07
2022-10-22T12:58:08.489Z,15.82
2022-10-22T13:00:36.393Z,13.30
2022-10-22T13:03:06.063Z,15.15
2022-10-22T13:05:38.962Z,11.93
2022-10-22T13:08:16.906Z,11.63
2022-10-22T13:10:51.040Z,11.13
2022-10-22T13:13:31.759Z,10.85
2022-10-22T13:16:27.728Z,13.93
2022-10-22T13:18:54.773Z,17.43
2022-10-22T13:21:38.364Z,13.38
2022-10-22T13:24:21.826Z,13.20
2022-10-22T13:26:51.004Z,13.55
2022-10-22T13:29:20.038Z,12.88
2022-10-22T13:31:51.717Z,11.43
2022-10-22T13:34:21.065Z,15.25
2022-10-22T13:36:48.636Z,13.00
2022-10-22T13:39:23.035Z,12.57
2022-10-22T13:41:50.697Z,14.60
2022-10-22T13:44:18.517Z,11.00
2022-10-22T13:46:46.277Z,14.60
2022-10-22T13:49:16.713Z,9.57
2022-10-22T13:51:43.730Z,10.18
2022-10-22T13:54:21.504Z,12.15
2022-10-22T13:56:48.303Z,12.47
2022-10-22T13:59:16.263Z,13.25
2022-10-22T14:01:45.288Z,12.40
2022-10-22T14:04:13.840Z,13.05
2022-10-22T14:06:40.205Z,11.40
2022-10-22T14:09:13.375Z,10.33
2022-10-22T14:11:39.757Z,10.85
2022-10-22T14:14:08.866Z,9.35
2022-10-22T14:16:36.839Z,8.65
2022-10-22T14:19:04.669Z,9.57
2022-10-22T14:21:38.007Z,7.53
2022-10-22T14:24:07.097Z,8.18
2022-10-22T14:26:35.857Z,6.47
2022-10-22T14:29:11.284Z,8.32
2022-10-22T14:31:44.418Z,10.38
2022-10-22T14:34:13.136Z,7.93
2022-10-22T14:36:39.541Z,6.70
2022-10-22T14:39:05.893Z,6.43
2022-10-22T14:41:32.383Z,6.88
2022-10-22T14:43:59.728Z,8.35
2022-10-22T14:46:26.195Z,5.57
2022-10-22T14:48:52.617Z,7.47
2022-10-22T14:51:21.269Z,7.72
2022-10-22T14:53:48.599Z,6.65
2022-10-22T14:56:18.291Z,7.05
2022-10-22T14:58:45.558Z,7.90
2022-10-22T15:01:12.084Z,6.43
2022-10-22T15:03:38.580Z,9.20
2022-10-22T15:06:05.648Z,9.00
2022-10-22T15:08:32.363Z,8.35
2022-10-22T15:11:11.573Z,8.37
2022-10-22T15:13:39.206Z,12.05
2022-10-22T15:16:06.613Z,5.78
2022-10-22T15:18:32.988Z,9.52
2022-10-22T15:21:01.997Z,8.35
2022-10-22T15:23:28.927Z,8.47
2022-10-22T15:25:55.773Z,9.50
2022-10-22T15:28:23.003Z,6.07
2022-10-22T15:30:57.674Z,10.38
2022-10-22T15:33:25.127Z,8.82
2022-10-22T15:35:51.838Z,9.50
2022-10-22T15:38:19.012Z,12.07
2022-10-22T15:40:45.996Z,11.13
2022-10-22T15:43:12.594Z,9.05
2022-10-22T15:45:39.879Z,12.15
2022-10-22T15:48:06.557Z,13.53
2022-10-22T15:50:37.827Z,10.30
2022-10-22T15:53:04.196Z,9.82
2022-10-22T15:55:30.529Z,12.38
2022-10-22T15:57:59.232Z,12.02
2022-10-22T16:00:28.255Z,11.80
2022-10-22T16:02:55.112Z,10.40
2022-10-22T16:05:21.496Z,10.77
2022-10-22T16:07:47.912Z,12.10
2022-10-22T16:10:14.686Z,10.93
2022-10-22T16:12:41.562Z,9.83
2022-10-22T16:15:09.371Z,11.75
2022-10-22T16:17:35.803Z,11.43
2022-10-22T16:20:02.333Z,13.15
2022-10-22T16:22:28.766Z,9.65
2022-10-22T16:24:55.109Z,9.77
2022-10-22T16:27:21.459Z,11.45
2022-10-22T16:29:47.864Z,11.52
2022-10-22T16:32:16.110Z,12.43
2022-10-22T16:34:42.448Z,10.73
2022-10-22T16:37:10.276Z,13.27
2022-10-22T16:39:37.046Z,10.45
2022-10-22T16:42:03.887Z,13.82
2022-10-22T16:44:30.254Z,11.77
2022-10-22T16:46:56.598Z,14.35
2022-10-22T16:49:23.087Z,12.37
2022-10-22T16:51:49.488Z,15.05
2022-10-22T16:54:15.910Z,12.10
2022-10-22T16:56:42.275Z,13.50
2022-10-22T16:59:08.657Z,13.65
2022-10-22T17:01:40.300Z,11.27
2022-10-22T17:04:07.579Z,9.32
2022-10-22T17:06:33.968Z,11.55
2022-10-22T17:09:00.446Z,10.65
2022-10-22T17:11:29.860Z,14.85
2022-10-22T17:13:56.234Z,16.17
2022-10-22T17:16:24.614Z,12.73
2022-10-22T17:18:52.778Z,11.73
2022-10-22T17:21:19.851Z,13.90
2022-10-22T17:23:47.063Z,11.60
2022-10-22T17:26:20.323Z,12.10
2022-10-22T17:28:47.471Z,13.65
2022-10-22T17:31:28.755Z,15.90
2022-10-22T17:33:56.452Z,14.32
2022-10-22T17:36:24.173Z,15.20
2022-10-22T17:38:53.449Z,14.37
2022-10-22T17:41:22.370Z,14.98
2022-10-22T17:43:49.368Z,15.23
2022-10-22T17:46:21.859Z,15.45
2022-10-22T17:48:51.977Z,12.05
2022-10-22T17:51:19.575Z,12.17
2022-10-22T17:53:46.113Z,15.73
2022-10-22T17:56:17.340Z,13.15
2022-10-22T17:58:43.835Z,16.20
2022-10-22T18:01:19.130Z,16.90
2022-10-22T18:03:45.603Z,11.80
2022-10-22T18:06:12.083Z,13.90
2022-10-22T18:08:38.510Z,12.55
2022-10-22T18:11:10.250Z,16.33
2022-10-22T18:13:36.694Z,17.92
2022-10-22T18:16:03.235Z,12.67
2022-10-22T18:18:29.605Z,13.55
2022-10-22T18:20:56.021Z,17.65
2022-10-22T18:23:22.476Z,16.08
2022-10-22T18:25:49.131Z,17.73
2022-10-22T18:28:17.817Z,17.73
2022-10-22T18:30:45.442Z,18.15
2022-10-22T18:33:17.668Z,22.42
2022-10-22T18:35:46.245Z,22.27
2022-10-22T18:38:12.615Z,26.08
2022-10-22T18:40:45.967Z,23.77
2022-10-22T18:43:12.677Z,24.80
2022-10-22T18:45:46.445Z,23.65
2022-10-22T18:48:14.478Z,20.17
2022-10-22T18:50:40.864Z,19.17
2022-10-22T18:53:07.231Z,22.97
2022-10-22T18:55:33.983Z,17.92
2022-10-22T18:58:00.326Z,19.65
2022-10-22T19:00:27.083Z,19.92
2022-10-22T19:02:54.828Z,16.33
2022-10-22T19:05:21.754Z,14.80
2022-10-22T19:07:50.154Z,19.63
2022-10-22T19:10:17.895Z,13.88
2022-10-22T19:12:44.288Z,18.48
2022-10-22T19:15:10.770Z,14.73
2022-10-22T19:17:37.135Z,16.33
2022-10-22T19:20:03.992Z,16.42
2022-10-22T19:22:30.497Z,19.98
2022-10-22T19:24:58.046Z,20.25
2022-10-22T19:27:24.519Z,16.33
2022-10-22T19:29:50.925Z,16.73
2022-10-22T19:32:19.841Z,14.40
2022-10-22T19:34:46.965Z,19.35
2022-10-22T19:37:13.303Z,18.48
2022-10-22T19:39:39.673Z,12.48
2022-10-22T19:42:06.207Z,16.63
2022-10-22T19:44:32.639Z,17.02
2022-10-22T19:46:59.007Z,16.48
2022-10-22T19:49:25.369Z,17.58
2022-10-22T19:51:51.785Z,15.73
2022-10-22T19:54:21.036Z,14.83
2022-10-22T19:56:47.720Z,17.63
2022-10-22T19:59:15.812Z,15.70
2022-10-22T20:01:42.532Z,24.70
2022-10-22T20:04:14.047Z,16.75
2022-10-22T20:06:40.383Z,17.27
2022-10-22T20:09:06.780Z,17.33
2022-10-22T20:11:33.170Z,14.05
2022-10-22T20:13:59.536Z,18.38
2022-10-22T20:16:29.580Z,18.08
2022-10-22T20:19:00.884Z,16.00
2022-10-22T20:21:27.568Z,16.35
2022-10-22T20:23:56.345Z,16.08
2022-10-22T20:26:24.525Z,19.55
2022-10-22T20:28:51.565Z,19.23
2022-10-22T20:31:19.892Z,15.73
2022-10-22T20:33:47.227Z,18.70
2022-10-22T20:36:17.193Z,19.00
2022-10-22T20:38:43.763Z,16.80
2022-10-22T20:41:12.404Z,19.80
2022-10-22T20:43:38.738Z,14.37
2022-10-22T20:46:05.592Z,21.00
2022-10-22T20:48:32.315Z,21.30
2022-10-22T20:50:59.704Z,25.08
2022-10-22T20:53:27.047Z,19.52
2022-10-22T20:55:57.372Z,17.63
2022-10-22T20:58:26.839Z,20.88
2022-10-22T21:00:54.780Z,16.65
2022-10-22T21:03:21.600Z,21.33
2022-10-22T21:05:48.169Z,18.63
2022-10-22T21:08:17.460Z,24.87
2022-10-22T21:10:48.885Z,23.90
2022-10-22T21:13:16.522Z,29.63
2022-10-22T21:15:42.996Z,22.98
2022-10-22T21:18:09.359Z,24.40
2022-10-22T21:20:35.756Z,27.80
2022-10-22T21:23:02.139Z,21.73
2022-10-22T21:25:28.502Z,24.90
2022-10-22T21:27:54.845Z,29.35
2022-10-22T21:30:21.208Z,29.77
2022-10-22T21:32:47.720Z,29.00
2022-10-22T21:35:14.129Z,26.63
2022-10-22T21:37:40.926Z,30.48
2022-10-22T21:40:08.144Z,25.95
2022-10-22T21:42:34.479Z,30.30
2022-10-22T21:45:00.995Z,26.87
2022-10-22T21:47:27.371Z,27.13
2022-10-22T21:49:53.824Z,30.38
2022-10-22T21:52:20.258Z,34.00
2022-10-22T21:54:46.647Z,30.98
2022-10-22T21:57:13.070Z,32.87
2022-10-22T21:59:39.438Z,32.20
2022-10-22T22:02:06.088Z,32.03
2022-10-22T22:04:32.935Z,29.40
2022-10-22T22:06:59.311Z,32.50
2022-10-22T22:09:25.760Z,35.90
2022-10-22T22:11:52.108Z,31.88
2022-10-22T22:14:18.492Z,37.53
2022-10-22T22:16:44.848Z,38.55
2022-10-22T22:19:12.323Z,38.05
2022-10-22T22:21:40.581Z,39.40
2022-10-22T22:24:08.124Z,33.97
2022-10-22T22:26:35.051Z,40.10
2022-10-22T22:29:01.706Z,36.00
2022-10-22T22:31:30.656Z,36.20
2022-10-22T22:34:23.177Z,37.63
2022-10-22T22:36:49.817Z,38.00
2022-10-22T22:39:23.448Z,36.88
2022-10-22T22:41:50.085Z,41.22
2022-10-22T22:44:16.754Z,36.30
2022-10-22T22:46:43.650Z,43.80
2022-10-22T22:49:10.099Z,39.95
2022-10-22T22:51:36.489Z,45.30
2022-10-22T22:54:02.935Z,50.25
2022-10-22T22:56:31.275Z,46.28
2022-10-22T22:58:58.496Z,46.60
2022-10-22T23:01:31.051Z,44.15
2022-10-22T23:04:16.394Z,45.28
2022-10-22T23:06:42.952Z,44.72
2022-10-22T23:09:11.465Z,41.22
2022-10-22T23:11:39.100Z,46.30
2022-10-22T23:14:07.475Z,40.65
2022-10-22T23:16:36.701Z,39.47
2022-10-22T23:19:04.463Z,43.13
2022-10-22T23:21:36.616Z,44.33
2022-10-22T23:24:07.228Z,42.90
2022-10-22T23:26:36.143Z,43.05
2022-10-22T23:29:05.107Z,49.50
2022-10-22T23:31:31.741Z,42.78
2022-10-22T23:33:58.830Z,45.70
2022-10-22T23:36:25.542Z,41.67
2022-10-22T23:38:52.112Z,44.00
2022-10-22T23:41:18.523Z,44.08
2022-10-22T23:43:45.001Z,49.17
2022-10-22T23:46:12.922Z,46.22
2022-10-22T23:48:39.872Z,48.03
2022-10-22T23:51:12.519Z,44.97
2022-10-22T23:53:39.568Z,46.45
2022-10-22T23:56:13.143Z,44.88
2022-10-22T23:58:40.112Z,39.47
